Time;durP1;ratioP1;P1;durP2;ratioP2;P2;SDS_P1;SDS_P2;PMS_P1;PMS_P2;Temp;Humidity;BMP_temperature;BMP_pressure;BME280_temperature;BME280_humidity;BME280_pressure;Samples;Min_cycle;Max_cycle;Signal;HPM_P1;HPM_P2
2021/03/11 00:00:49;;;;;;;10.38;7.47;;;9.90;99.90;;;;;;5019290;28;20532;-78
2021/03/11 00:03:18;;;;;;;9.88;8.05;;;9.80;99.90;;;;;;5018718;28;20211;-75
2021/03/11 00:05:44;;;;;;;11.85;9.23;;;9.70;99.90;;;;;;5017565;28;20250;-77
2021/03/11 00:08:11;;;;;;;10.70;8.48;;;9.80;99.90;;;;;;5029177;28;20216;-78
2021/03/11 00:10:39;;;;;;;10.73;8.55;;;9.70;99.90;;;;;;5028685;28;20579;-75
2021/03/11 00:13:06;;;;;;;10.75;8.00;;;9.90;99.90;;;;;;5033461;28;20246;-79
2021/03/11 00:15:34;;;;;;;13.40;9.90;;;9.70;99.90;;;;;;5032529;28;20214;-79
2021/03/11 00:18:01;;;;;;;13.48;9.77;;;9.90;99.90;;;;;;5024477;28;20191;-79
2021/03/11 00:20:28;;;;;;;9.38;8.43;;;9.70;99.90;;;;;;5033774;28;20202;-77
2021/03/11 00:22:55;;;;;;;10.25;8.40;;;9.70;99.90;;;;;;5024286;28;20219;-77
2021/03/11 00:25:24;;;;;;;10.85;8.77;;;9.70;99.90;;;;;;5033185;28;20220;-78
2021/03/11 00:27:50;;;;;;;10.32;8.10;;;9.80;99.90;;;;;;5033942;28;20196;-77
2021/03/11 00:30:18;;;;;;;12.93;8.05;;;9.70;99.90;;;;;;5045611;28;20195;-77
2021/03/11 00:32:45;;;;;;;11.18;8.73;;;9.70;99.90;;;;;;5053467;28;20241;-78
2021/03/11 00:35:13;;;;;;;10.38;8.80;;;9.70;99.90;;;;;;5037273;28;20238;-79
2021/03/11 00:37:41;;;;;;;10.32;8.63;;;9.70;99.90;;;;;;5033615;28;20230;-79
2021/03/11 00:40:10;;;;;;;10.00;8.70;;;9.70;99.90;;;;;;5033779;28;20246;-79
2021/03/11 00:42:37;;;;;;;11.35;8.77;;;9.70;99.90;;;;;;5033139;28;20219;-79
2021/03/11 00:45:05;;;;;;;10.13;7.78;;;9.70;99.90;;;;;;5033231;28;20219;-79
2021/03/11 00:47:32;;;;;;;10.18;8.43;;;9.60;99.90;;;;;;5032850;28;20212;-78
2021/03/11 00:49:59;;;;;;;10.70;8.13;;;9.70;99.90;;;;;;5026479;28;20700;-79
2021/03/11 00:52:25;;;;;;;11.43;8.45;;;9.60;99.90;;;;;;5013887;28;20224;-79
2021/03/11 00:54:52;;;;;;;10.93;8.85;;;9.60;99.90;;;;;;5014241;28;20215;-78
2021/03/11 00:57:18;;;;;;;11.05;8.88;;;9.60;99.90;;;;;;5029446;28;20230;-79
2021/03/11 00:59:44;;;;;;;10.10;8.52;;;9.60;99.90;;;;;;5033571;28;20196;-79
2021/03/11 01:02:10;;;;;;;10.63;7.82;;;9.60;99.90;;;;;;5032692;28;20211;-79
2021/03/11 01:04:37;;;;;;;9.43;8.15;;;9.60;99.90;;;;;;5029551;28;20219;-79
2021/03/11 01:07:04;;;;;;;14.15;8.60;;;9.70;99.90;;;;;;5013080;28;20243;-79
2021/03/11 01:09:30;;;;;;;12.10;8.35;;;9.60;99.90;;;;;;5018984;28;20195;-79
2021/03/11 01:11:57;;;;;;;8.55;6.85;;;9.60;99.90;;;;;;5033072;28;20199;-79
2021/03/11 01:14:23;;;;;;;8.63;7.63;;;9.70;99.90;;;;;;5033091;28;20215;-78
2021/03/11 01:16:51;;;;;;;9.63;7.40;;;9.60;99.90;;;;;;5032802;28;20227;-79
2021/03/11 01:19:18;;;;;;;8.73;7.82;;;9.70;99.90;;;;;;5022795;28;20675;-79
2021/03/11 01:21:44;;;;;;;11.48;7.68;;;9.60;99.90;;;;;;5015644;28;20854;-79
2021/03/11 01:24:11;;;;;;;10.43;8.50;;;9.60;99.90;;;;;;5031921;28;20223;-79
2021/03/11 01:26:37;;;;;;;8.90;6.85;;;9.70;99.90;;;;;;5033083;28;20696;-79
2021/03/11 01:29:03;;;;;;;10.80;7.97;;;9.60;99.90;;;;;;5024774;28;20852;-79
2021/03/11 01:31:30;;;;;;;8.88;7.85;;;9.70;99.90;;;;;;5012751;28;20212;-79
2021/03/11 01:33:56;;;;;;;9.63;7.65;;;9.60;99.90;;;;;;5023817;28;20266;-78
2021/03/11 01:36:23;;;;;;;15.02;9.20;;;9.60;99.90;;;;;;5018252;28;20219;-79
2021/03/11 01:38:49;;;;;;;11.88;8.52;;;9.70;99.90;;;;;;5018556;28;20196;-79
2021/03/11 01:41:16;;;;;;;10.85;8.13;;;9.50;99.90;;;;;;5012747;28;20220;-79
2021/03/11 01:43:42;;;;;;;13.07;9.10;;;9.50;99.90;;;;;;5016831;28;20220;-78
2021/03/11 01:46:09;;;;;;;11.63;9.18;;;9.50;99.90;;;;;;5032176;28;20207;-77
2021/03/11 01:48:35;;;;;;;10.27;8.45;;;9.50;99.90;;;;;;5032157;28;20208;-77
2021/03/11 01:51:02;;;;;;;11.75;8.07;;;9.60;99.90;;;;;;5023976;28;20232;-78
2021/03/11 01:53:29;;;;;;;13.63;9.63;;;9.50;99.90;;;;;;5012689;28;20200;-78
2021/03/11 01:55:56;;;;;;;11.23;8.45;;;9.50;99.90;;;;;;5012563;28;20228;-78
2021/03/11 01:58:23;;;;;;;11.68;8.25;;;9.60;99.90;;;;;;5012952;28;20255;-79
2021/03/11 02:00:50;;;;;;;10.95;8.27;;;9.50;99.90;;;;;;5017073;28;20215;-78
2021/03/11 02:03:16;;;;;;;9.27;7.15;;;9.50;99.90;;;;;;5031779;28;20215;-77
2021/03/11 02:05:43;;;;;;;11.52;8.02;;;9.50;99.90;;;;;;5017362;28;20220;-78
2021/03/11 02:08:09;;;;;;;10.75;8.65;;;9.50;99.90;;;;;;5032293;28;20196;-79
2021/03/11 02:10:35;;;;;;;9.05;7.10;;;9.50;99.90;;;;;;5032177;28;20199;-79
2021/03/11 02:13:19;;;;;;;12.18;10.02;;;9.50;99.90;;;;;;5037561;28;20612;-79
2021/03/11 02:15:49;;;;;;;11.10;7.85;;;9.60;99.90;;;;;;5049808;28;20209;-79
2021/03/11 02:18:21;;;;;;;10.63;7.85;;;9.60;99.90;;;;;;5041556;28;20564;-80
2021/03/11 02:20:52;;;;;;;10.32;8.30;;;9.50;99.90;;;;;;5030462;28;20634;-79
2021/03/11 02:23:49;;;;;;;10.23;7.85;;;9.50;99.90;;;;;;5025571;28;20216;-79
2021/03/11 02:26:32;;;;;;;13.00;8.90;;;9.50;99.90;;;;;;5011812;28;20668;-80
2021/03/11 02:29:03;;;;;;;10.98;8.15;;;9.40;99.90;;;;;;5014095;28;20216;-80
2021/03/11 02:31:31;;;;;;;13.20;7.55;;;9.40;99.90;;;;;;5029286;28;20556;-79
2021/03/11 02:33:59;;;;;;;10.30;7.82;;;9.70;99.90;;;;;;5013737;28;20220;-78
2021/03/11 02:36:27;;;;;;;9.63;6.80;;;9.40;99.90;;;;;;5016651;28;20223;-79
2021/03/11 02:38:55;;;;;;;10.95;8.60;;;9.50;99.90;;;;;;5031552;28;20578;-79
2021/03/11 02:41:23;;;;;;;8.80;7.68;;;9.40;99.90;;;;;;5015811;28;20224;-79
2021/03/11 02:43:51;;;;;;;9.02;7.72;;;9.40;99.90;;;;;;5022357;28;20195;-78
2021/03/11 02:46:19;;;;;;;8.98;7.55;;;9.40;99.90;;;;;;5031511;28;20215;-79
2021/03/11 02:48:49;;;;;;;12.38;8.05;;;9.40;99.90;;;;;;5030656;28;20220;-79
2021/03/11 02:51:17;;;;;;;13.68;8.23;;;9.40;99.90;;;;;;5011161;28;20232;-79
2021/03/11 02:53:43;;;;;;;9.85;7.60;;;9.40;99.90;;;;;;5011724;28;20207;-80
2021/03/11 02:56:10;;;;;;;9.63;6.70;;;9.40;99.90;;;;;;5011521;28;20224;-80
2021/03/11 02:58:39;;;;;;;8.68;7.60;;;9.40;99.90;;;;;;5023437;28;20211;-79
2021/03/11 03:01:06;;;;;;;7.65;6.45;;;9.30;99.90;;;;;;5025431;28;20215;-80
2021/03/11 03:03:34;;;;;;;10.00;7.22;;;9.60;99.90;;;;;;5031356;28;20211;-80
2021/03/11 03:06:02;;;;;;;10.40;7.95;;;9.40;99.90;;;;;;5030742;28;20227;-79
2021/03/11 03:08:29;;;;;;;9.02;7.20;;;9.40;99.90;;;;;;5031125;28;20203;-79
2021/03/11 03:10:55;;;;;;;7.05;6.30;;;9.50;99.90;;;;;;5031259;28;20216;-79
2021/03/11 03:13:23;;;;;;;8.50;7.32;;;9.40;99.90;;;;;;5029970;28;20813;-79
2021/03/11 03:15:50;;;;;;;7.68;6.60;;;9.40;99.90;;;;;;5031254;28;20226;-80
2021/03/11 03:18:18;;;;;;;9.20;7.45;;;9.40;99.90;;;;;;5016354;28;20199;-79
2021/03/11 03:20:47;;;;;;;9.45;6.50;;;9.40;99.90;;;;;;5011518;28;20220;-77
2021/03/11 03:23:13;;;;;;;9.30;6.93;;;9.50;99.90;;;;;;5012407;28;20219;-79
2021/03/11 03:25:40;;;;;;;10.35;6.60;;;9.40;99.90;;;;;;5030727;28;20187;-80
2021/03/11 03:28:06;;;;;;;8.82;6.60;;;9.40;99.90;;;;;;5018186;28;20254;-79
2021/03/11 03:30:33;;;;;;;8.70;7.10;;;9.40;99.90;;;;;;5011284;28;20227;-78
2021/03/11 03:32:59;;;;;;;7.30;6.25;;;9.60;99.90;;;;;;5011945;28;20220;-79
2021/03/11 03:35:25;;;;;;;8.93;6.68;;;9.60;99.90;;;;;;5012956;28;20216;-79
2021/03/11 03:37:53;;;;;;;10.80;8.02;;;9.40;99.90;;;;;;5011326;28;20298;-79
2021/03/11 03:40:22;;;;;;;7.57;6.18;;;9.40;99.90;;;;;;5044629;28;20296;-79
2021/03/11 03:42:53;;;;;;;8.63;7.10;;;9.40;99.90;;;;;;5036893;28;20199;-78
2021/03/11 03:45:24;;;;;;;10.43;6.75;;;9.40;99.90;;;;;;5032898;28;20223;-78
2021/03/11 03:47:51;;;;;;;9.18;6.60;;;9.40;99.90;;;;;;5022286;28;20231;-78
2021/03/11 03:50:19;;;;;;;9.90;7.13;;;9.40;99.90;;;;;;5014654;28;20587;-78
2021/03/11 03:52:47;;;;;;;6.47;5.50;;;9.50;99.90;;;;;;5014998;28;20683;-78
2021/03/11 03:55:16;;;;;;;7.75;5.35;;;9.40;99.90;;;;;;5019872;28;20258;-79
2021/03/11 03:57:46;;;;;;;6.53;5.25;;;9.60;99.90;;;;;;5034501;28;20231;-77
2021/03/11 04:00:15;;;;;;;7.50;6.32;;;9.40;99.90;;;;;;5033263;28;20215;-79
2021/03/11 04:02:42;;;;;;;7.45;5.63;;;9.40;99.90;;;;;;5029548;28;20342;-79
2021/03/11 04:05:10;;;;;;;9.38;5.93;;;9.40;99.90;;;;;;5034287;28;20218;-77
2021/03/11 04:07:37;;;;;;;7.85;5.10;;;9.40;99.90;;;;;;5032578;28;20196;-79
2021/03/11 04:10:06;;;;;;;5.47;4.90;;;9.40;99.90;;;;;;5034155;28;20219;-79
2021/03/11 04:12:34;;;;;;;8.55;5.22;;;9.40;99.90;;;;;;5024238;28;20224;-80
2021/03/11 04:15:01;;;;;;;5.78;4.40;;;9.40;99.90;;;;;;5014683;28;20200;-79
2021/03/11 04:17:28;;;;;;;5.78;5.18;;;9.50;99.90;;;;;;5014470;28;20285;-79
2021/03/11 04:19:56;;;;;;;9.00;5.90;;;9.40;99.90;;;;;;5028538;28;20266;-79
2021/03/11 04:22:22;;;;;;;7.50;5.00;;;9.40;99.90;;;;;;5034009;28;20216;-79
2021/03/11 04:24:50;;;;;;;5.55;4.80;;;9.40;99.90;;;;;;5034140;28;20555;-79
2021/03/11 04:27:16;;;;;;;6.65;4.57;;;9.40;99.90;;;;;;5033843;28;20242;-79
2021/03/11 04:29:44;;;;;;;5.63;4.28;;;9.40;99.90;;;;;;5026892;28;20238;-79
2021/03/11 04:32:11;;;;;;;6.22;4.80;;;9.40;99.90;;;;;;5028581;28;20278;-77
2021/03/11 04:34:37;;;;;;;6.50;4.85;;;9.50;99.90;;;;;;5014178;28;20212;-79
2021/03/11 04:37:05;;;;;;;5.85;4.43;;;9.40;99.90;;;;;;5020864;28;20268;-79
2021/03/11 04:39:31;;;;;;;5.68;4.35;;;9.40;99.90;;;;;;5033327;28;20702;-80
2021/03/11 04:41:58;;;;;;;6.55;4.70;;;9.40;99.90;;;;;;5021057;28;20239;-79
2021/03/11 04:44:26;;;;;;;4.55;3.85;;;9.40;99.90;;;;;;5023021;28;20633;-79
2021/03/11 04:46:55;;;;;;;4.43;3.63;;;9.40;99.90;;;;;;5035262;28;20302;-78
2021/03/11 04:49:23;;;;;;;4.43;3.45;;;9.40;99.90;;;;;;5028965;28;20658;-78
2021/03/11 04:51:50;;;;;;;6.10;3.70;;;9.40;99.90;;;;;;5016155;28;20223;-79
2021/03/11 04:54:19;;;;;;;4.00;3.30;;;9.40;99.90;;;;;;5014005;28;20227;-81
2021/03/11 04:56:45;;;;;;;7.35;3.53;;;9.40;99.90;;;;;;5023959;28;20563;-80
2021/03/11 04:59:12;;;;;;;5.07;3.55;;;9.50;99.90;;;;;;5024363;28;20253;-80
2021/03/11 05:01:41;;;;;;;4.45;3.63;;;9.40;99.90;;;;;;5029255;28;20192;-80
2021/03/11 05:04:10;;;;;;;4.50;3.70;;;9.40;99.90;;;;;;5014064;28;20498;-79
2021/03/11 05:06:36;;;;;;;3.33;3.03;;;9.50;99.90;;;;;;5018437;28;20290;-81
2021/03/11 05:09:03;;;;;;;4.00;3.60;;;9.40;99.90;;;;;;5033454;28;20204;-80
2021/03/11 05:11:29;;;;;;;5.53;3.58;;;9.40;99.90;;;;;;5030144;28;20618;-80
2021/03/11 05:13:56;;;;;;;3.13;2.80;;;9.40;99.90;;;;;;5033550;28;20219;-80
2021/03/11 05:16:22;;;;;;;3.22;2.50;;;9.40;99.90;;;;;;5018987;28;20560;-80
2021/03/11 05:18:48;;;;;;;5.30;3.38;;;9.40;99.90;;;;;;5013170;28;20216;-80
2021/03/11 05:21:15;;;;;;;4.45;3.30;;;9.40;99.90;;;;;;5032346;28;20216;-80
2021/03/11 05:23:42;;;;;;;2.67;2.47;;;9.40;99.90;;;;;;5036076;28;20241;-80
2021/03/11 05:26:08;;;;;;;4.40;3.03;;;9.40;99.90;;;;;;5034084;28;20197;-80
2021/03/11 05:28:34;;;;;;;3.95;3.28;;;9.40;99.90;;;;;;5013897;28;20220;-78
2021/03/11 05:31:00;;;;;;;3.35;2.80;;;9.60;99.90;;;;;;5032657;28;20215;-79
2021/03/11 05:33:26;;;;;;;3.70;2.72;;;9.50;99.90;;;;;;5032521;28;20215;-79
2021/03/11 05:35:53;;;;;;;3.28;2.97;;;9.50;99.90;;;;;;5018144;28;20200;-79
2021/03/11 05:38:20;;;;;;;3.72;2.95;;;9.50;99.90;;;;;;5012945;28;20593;-80
2021/03/11 05:40:50;;;;;;;3.30;3.00;;;9.50;99.90;;;;;;5022472;28;20212;-79
2021/03/11 05:43:17;;;;;;;3.10;2.70;;;9.50;99.90;;;;;;5032267;28;20575;-79
2021/03/11 05:45:45;;;;;;;3.40;3.10;;;9.50;99.90;;;;;;5031162;28;20222;-79
2021/03/11 05:48:14;;;;;;;2.83;2.45;;;9.40;99.90;;;;;;5032517;28;20247;-79
2021/03/11 05:50:41;;;;;;;3.42;2.85;;;9.40;99.90;;;;;;5033235;28;20583;-78
2021/03/11 05:53:10;;;;;;;4.85;3.60;;;9.40;99.90;;;;;;5023461;28;20216;-79
2021/03/11 05:55:39;;;;;;;3.53;2.80;;;9.40;99.90;;;;;;5032948;28;20192;-79
2021/03/11 05:58:08;;;;;;;3.38;3.08;;;9.60;99.90;;;;;;5021675;28;20224;-80
2021/03/11 06:00:34;;;;;;;4.82;3.05;;;9.40;99.90;;;;;;5013190;28;20216;-79
2021/03/11 06:03:01;;;;;;;3.60;2.90;;;9.40;99.90;;;;;;5012803;28;20288;-79
2021/03/11 06:05:30;;;;;;;4.47;3.03;;;9.50;99.90;;;;;;5016503;28;20196;-79
2021/03/11 06:07:57;;;;;;;3.30;3.00;;;9.50;99.90;;;;;;5031895;28;20191;-80
2021/03/11 06:10:24;;;;;;;3.15;2.55;;;9.40;99.90;;;;;;5032145;28;20563;-80
2021/03/11 06:12:52;;;;;;;3.13;2.40;;;9.40;99.90;;;;;;5031932;28;20241;-79
2021/03/11 06:15:27;;;;;;;3.35;2.75;;;9.40;99.90;;;;;;5024865;28;21628;-80
2021/03/11 06:17:55;;;;;;;2.40;2.20;;;9.40;99.90;;;;;;5031715;28;20249;-79
2021/03/11 06:20:21;;;;;;;3.00;2.10;;;9.40;99.90;;;;;;5030999;28;20222;-79
2021/03/11 06:22:48;;;;;;;2.90;2.60;;;9.40;99.90;;;;;;5016225;28;20622;-79
2021/03/11 06:25:16;;;;;;;3.42;2.90;;;9.50;99.90;;;;;;5014789;28;20226;-79
2021/03/11 06:27:42;;;;;;;3.35;2.90;;;9.40;99.90;;;;;;5013289;28;20220;-79
2021/03/11 06:30:29;;;;;;;2.08;1.88;;;9.40;99.90;;;;;;5011580;28;20223;-79
2021/03/11 06:32:56;;;;;;;3.17;2.60;;;9.40;99.90;;;;;;5025435;28;20219;-80
2021/03/11 06:35:22;;;;;;;3.15;2.55;;;9.40;99.90;;;;;;5025880;28;20621;-80
2021/03/11 06:37:49;;;;;;;4.20;2.92;;;9.40;99.90;;;;;;5031018;28;20219;-80
2021/03/11 06:40:16;;;;;;;2.50;2.30;;;9.40;99.90;;;;;;5023118;28;20196;-80
2021/03/11 06:42:44;;;;;;;2.70;1.73;;;9.40;99.90;;;;;;5011797;28;20216;-80
2021/03/11 06:45:26;;;;;;;4.15;2.85;;;9.40;99.90;;;;;;5011872;28;20228;-81
2021/03/11 06:48:13;;;;;;;2.35;2.15;;;9.40;99.90;;;;;;5015751;28;20290;-80
2021/03/11 06:50:40;;;;;;;2.53;2.17;;;9.40;99.90;;;;;;5011512;28;20278;-80
2021/03/11 06:53:06;;;;;;;2.45;2.13;;;9.50;99.90;;;;;;5011799;28;20192;-80
2021/03/11 06:55:32;;;;;;;2.95;2.35;;;9.50;99.90;;;;;;5016924;28;20320;-81
2021/03/11 06:58:17;;;;;;;2.83;2.08;;;9.40;99.90;;;;;;5011671;28;20263;-81
2021/03/11 07:00:45;;;;;;;2.20;2.10;;;9.40;99.90;;;;;;5028356;28;20219;-80
2021/03/11 07:03:12;;;;;;;3.50;2.50;;;9.40;99.90;;;;;;5031795;28;20225;-81
2021/03/11 07:05:40;;;;;;;2.70;2.00;;;9.40;99.90;;;;;;5032106;28;20187;-81
2021/03/11 07:08:07;;;;;;;2.88;2.22;;;9.40;99.90;;;;;;5031612;28;20231;-81
2021/03/11 07:10:35;;;;;;;3.17;2.17;;;9.40;99.90;;;;;;5012223;28;20216;-81
2021/03/11 07:13:05;;;;;;;2.90;2.60;;;9.40;99.90;;;;;;5011685;28;20295;-80
2021/03/11 07:15:33;;;;;;;2.85;2.20;;;9.40;99.90;;;;;;5025537;28;20692;-80
2021/03/11 07:18:01;;;;;;;2.35;2.15;;;9.50;99.90;;;;;;5028646;28;20249;-80
2021/03/11 07:20:28;;;;;;;2.90;2.40;;;9.40;99.90;;;;;;5030160;28;20556;-79
2021/03/11 07:23:07;;;;;;;2.60;2.40;;;9.40;99.90;;;;;;5021914;28;20199;-80
2021/03/11 07:25:35;;;;;;;2.50;2.30;;;9.40;99.90;;;;;;5011804;28;20223;-81
2021/03/11 07:28:02;;;;;;;2.50;2.30;;;9.40;99.90;;;;;;5031194;28;20713;-81
2021/03/11 07:30:29;;;;;;;3.80;2.40;;;9.40;99.90;;;;;;5012417;28;20302;-81
2021/03/11 07:33:02;;;;;;;3.90;2.30;;;9.50;99.90;;;;;;5012643;28;20216;-81
2021/03/11 07:35:32;;;;;;;1.85;1.70;;;9.50;99.90;;;;;;5012085;28;20585;-82
2021/03/11 07:38:01;;;;;;;2.60;2.28;;;9.50;99.90;;;;;;5014364;28;20319;-81
2021/03/11 07:40:32;;;;;;;2.05;1.88;;;9.50;99.90;;;;;;5031442;28;20253;-81
2021/03/11 07:42:59;;;;;;;2.40;2.17;;;9.50;99.90;;;;;;5031192;28;20219;-81
2021/03/11 07:45:27;;;;;;;2.45;2.22;;;9.50;99.90;;;;;;5029298;28;20207;-80
2021/03/11 07:47:53;;;;;;;2.45;2.08;;;9.50;99.90;;;;;;5030874;28;20219;-79
2021/03/11 07:50:20;;;;;;;2.28;1.83;;;9.50;99.90;;;;;;5030298;28;20610;-78
2021/03/11 07:52:48;;;;;;;1.98;1.77;;;9.50;99.90;;;;;;5027480;28;20249;-81
2021/03/11 07:55:14;;;;;;;5.07;3.20;;;9.60;99.90;;;;;;5021532;28;20587;-80
2021/03/11 07:57:43;;;;;;;2.15;1.95;;;9.50;99.90;;;;;;5030221;28;20231;-79
2021/03/11 08:00:13;;;;;;;2.65;2.38;;;9.60;99.90;;;;;;5026840;28;20216;-79
2021/03/11 08:02:44;;;;;;;3.60;2.90;;;9.50;99.90;;;;;;5023624;28;20188;-79
2021/03/11 08:05:11;;;;;;;4.22;2.30;;;9.60;99.90;;;;;;5028270;28;20200;-77
2021/03/11 08:07:39;;;;;;;2.03;1.80;;;9.70;99.90;;;;;;5029095;28;20220;-78
2021/03/11 08:10:20;;;;;;;2.40;2.20;;;9.70;99.90;;;;;;5022921;28;20726;-79
2021/03/11 08:12:47;;;;;;;4.50;2.10;;;9.60;99.90;;;;;;5030287;28;20180;-80
2021/03/11 08:15:32;;;;;;;2.38;2.15;;;9.50;99.90;;;;;;5024778;28;20601;-79
2021/03/11 08:17:58;;;;;;;2.97;2.25;;;9.50;99.90;;;;;;5021789;28;20255;-80
2021/03/11 08:20:40;;;;;;;3.20;2.20;;;9.40;99.90;;;;;;5024661;28;20221;-79
2021/03/11 08:23:10;;;;;;;2.83;2.55;;;9.50;99.90;;;;;;5022448;28;20192;-79
2021/03/11 08:25:47;;;;;;;2.33;1.92;;;9.60;99.90;;;;;;5021565;28;20212;-79
2021/03/11 08:28:40;;;;;;;2.97;1.95;;;9.40;99.90;;;;;;5024583;28;20238;-79
2021/03/11 08:31:08;;;;;;;3.42;2.67;;;9.60;99.90;;;;;;5020203;28;20625;-80
2021/03/11 08:33:56;;;;;;;2.63;2.40;;;9.80;99.90;;;;;;5026266;28;20554;-79
2021/03/11 08:36:46;;;;;;;2.05;1.83;;;10.20;99.90;;;;;;5027666;28;20302;-78
2021/03/11 08:39:32;;;;;;;2.13;1.92;;;10.50;99.90;;;;;;5027998;28;20210;-78
2021/03/11 08:42:14;;;;;;;3.25;2.72;;;10.50;99.90;;;;;;5019502;28;20264;-78
2021/03/11 08:44:44;;;;;;;2.40;1.95;;;10.40;99.90;;;;;;5014607;28;20212;-81
2021/03/11 08:47:11;;;;;;;2.38;1.98;;;10.40;99.90;;;;;;5024135;28;20222;-78
2021/03/11 08:49:39;;;;;;;2.63;2.42;;;10.50;99.90;;;;;;5019972;28;20294;-78
2021/03/11 08:52:06;;;;;;;4.13;2.10;;;10.40;99.90;;;;;;5020080;28;20205;-78
2021/03/11 08:54:33;;;;;;;2.92;2.20;;;10.30;99.90;;;;;;5025425;28;20220;-79
2021/03/11 08:56:59;;;;;;;2.50;1.90;;;10.30;99.90;;;;;;5020308;28;20228;-78
2021/03/11 08:59:47;;;;;;;2.38;2.17;;;10.30;99.90;;;;;;5021350;28;20219;-79
2021/03/11 09:02:31;;;;;;;3.25;2.75;;;10.30;99.90;;;;;;5028579;28;20231;-79
2021/03/11 09:04:58;;;;;;;4.82;2.60;;;10.30;99.90;;;;;;5025184;28;20564;-79
2021/03/11 09:07:33;;;;;;;2.75;1.90;;;10.30;99.90;;;;;;5025201;28;20220;-77
2021/03/11 09:10:00;;;;;;;2.53;1.95;;;10.20;99.90;;;;;;5030362;28;20823;-79
2021/03/11 09:12:37;;;;;;;2.45;2.20;;;10.20;99.90;;;;;;5014583;28;20200;-78
2021/03/11 09:15:06;;;;;;;2.60;1.90;;;10.20;99.90;;;;;;5024490;28;20216;-79
2021/03/11 09:17:35;;;;;;;2.10;1.90;;;10.10;99.90;;;;;;5028173;28;20223;-79
2021/03/11 09:20:05;;;;;;;4.25;2.53;;;10.10;99.90;;;;;;5029455;28;20204;-79
2021/03/11 09:22:32;;;;;;;2.97;1.95;;;10.10;99.90;;;;;;5017592;28;20200;-79
2021/03/11 09:25:11;;;;;;;2.33;2.10;;;10.10;99.90;;;;;;5022349;28;20212;-79
2021/03/11 09:27:40;;;;;;;1.70;1.60;;;10.10;99.90;;;;;;5017734;28;20606;-78
2021/03/11 09:30:09;;;;;;;3.42;2.35;;;10.20;99.90;;;;;;5022004;28;20216;-78
2021/03/11 09:32:37;;;;;;;2.60;2.28;;;10.20;99.90;;;;;;5016193;28;20721;-78
2021/03/11 09:35:06;;;;;;;2.65;2.00;;;10.20;99.90;;;;;;5027051;28;20580;-78
2021/03/11 09:37:56;;;;;;;3.40;2.28;;;10.20;99.90;;;;;;5023957;28;20220;-79
2021/03/11 09:40:35;;;;;;;3.53;2.70;;;10.30;99.90;;;;;;5026056;28;20805;-80
2021/03/11 09:43:11;;;;;;;3.17;1.95;;;10.30;99.90;;;;;;5018790;28;20278;-79
2021/03/11 09:45:40;;;;;;;2.25;1.95;;;10.30;99.90;;;;;;5023538;28;20247;-79
2021/03/11 09:48:08;;;;;;;3.22;2.60;;;10.40;99.90;;;;;;5026477;28;20196;-79
2021/03/11 09:50:35;;;;;;;2.08;1.88;;;10.30;99.90;;;;;;5021595;28;20224;-79
2021/03/11 09:53:02;;;;;;;3.47;2.35;;;10.40;99.90;;;;;;5022717;28;20590;-79
2021/03/11 09:55:30;;;;;;;3.65;3.42;;;10.40;99.90;;;;;;5022732;28;20224;-79
2021/03/11 09:57:56;;;;;;;4.20;2.53;;;10.40;99.90;;;;;;5023782;28;20234;-77
2021/03/11 10:00:23;;;;;;;3.97;1.77;;;10.30;99.90;;;;;;5025419;28;20199;-78
2021/03/11 10:02:50;;;;;;;3.83;2.38;;;10.30;99.90;;;;;;5024359;28;20203;-77
2021/03/11 10:05:17;;;;;;;3.25;1.80;;;10.30;99.90;;;;;;5022461;28;20215;-77
2021/03/11 10:07:52;;;;;;;3.80;2.35;;;10.30;99.90;;;;;;5022274;28;20215;-78
2021/03/11 10:10:19;;;;;;;2.15;1.80;;;10.40;99.90;;;;;;5024230;28;20202;-78
2021/03/11 10:12:46;;;;;;;3.08;1.80;;;10.40;99.90;;;;;;5023620;28;20188;-79
2021/03/11 10:15:14;;;;;;;5.97;1.75;;;10.30;99.90;;;;;;5023496;28;20222;-77
2021/03/11 10:17:42;;;;;;;8.18;3.08;;;10.40;99.90;;;;;;5023235;28;20220;-79
2021/03/11 10:20:19;;;;;;;7.38;2.17;;;10.40;99.90;;;;;;5025160;28;20719;-78
2021/03/11 10:22:46;;;;;;;3.05;1.75;;;10.40;99.90;;;;;;5026094;28;20208;-78
2021/03/11 10:25:14;;;;;;;6.25;2.17;;;10.40;99.90;;;;;;5027909;28;20277;-78
2021/03/11 10:27:44;;;;;;;10.60;2.20;;;10.50;99.90;;;;;;5020415;28;20231;-78
2021/03/11 10:30:16;;;;;;;4.07;1.95;;;10.50;99.90;;;;;;5022893;28;20208;-79
2021/03/11 10:32:44;;;;;;;4.45;2.10;;;10.60;99.90;;;;;;5024227;28;20273;-79
2021/03/11 10:35:12;;;;;;;6.40;1.60;;;10.70;99.90;;;;;;5022996;28;20212;-79
2021/03/11 10:37:40;;;;;;;9.02;1.88;;;10.80;99.90;;;;;;5023094;28;20212;-78
2021/03/11 10:40:08;;;;;;;7.20;2.10;;;10.80;99.90;;;;;;5023459;28;20226;-79
2021/03/11 10:42:42;;;;;;;6.20;1.67;;;10.90;99.90;;;;;;5023038;28;20606;-80
2021/03/11 10:45:11;;;;;;;4.88;1.90;;;10.90;99.90;;;;;;5021943;28;20226;-79
2021/03/11 10:47:37;;;;;;;4.85;2.10;;;10.90;99.90;;;;;;5021660;28;20943;-79
2021/03/11 10:50:16;;;;;;;8.45;1.92;;;11.00;99.90;;;;;;5023411;28;20227;-79
2021/03/11 10:52:48;;;;;;;8.27;1.90;;;11.00;99.90;;;;;;5022659;28;20564;-79
2021/03/11 10:55:27;;;;;;;8.40;2.28;;;11.00;99.90;;;;;;5022946;28;20650;-79
2021/03/11 10:57:53;;;;;;;5.95;2.50;;;11.00;99.90;;;;;;5021835;28;20231;-78
2021/03/11 11:00:24;;;;;;;6.53;1.98;;;11.00;99.90;;;;;;5021190;28;20381;-79
2021/03/11 11:02:53;;;;;;;6.30;2.03;;;11.00;99.90;;;;;;5020430;28;20195;-78
2021/03/11 11:05:20;;;;;;;5.30;2.58;;;11.00;99.90;;;;;;5023749;28;20222;-79
2021/03/11 11:07:46;;;;;;;5.90;2.28;;;11.00;99.90;;;;;;5024792;28;20188;-78
2021/03/11 11:10:14;;;;;;;6.40;2.22;;;11.00;99.90;;;;;;5024883;28;20207;-80
2021/03/11 11:12:41;;;;;;;11.50;2.60;;;11.00;99.90;;;;;;5027085;28;20762;-79
2021/03/11 11:15:08;;;;;;;7.97;3.63;;;11.00;99.90;;;;;;5016984;28;20631;-79
2021/03/11 11:17:35;;;;;;;4.93;1.80;;;11.00;99.90;;;;;;5023625;28;20219;-79
2021/03/11 11:20:03;;;;;;;7.82;1.85;;;11.00;99.90;;;;;;5020848;28;20191;-79
2021/03/11 11:22:29;;;;;;;4.00;2.45;;;11.20;99.90;;;;;;5022166;28;20208;-79
2021/03/11 11:24:55;;;;;;;8.25;2.00;;;11.10;99.90;;;;;;5022996;28;20222;-78
2021/03/11 11:27:22;;;;;;;4.97;1.83;;;11.10;99.90;;;;;;5025451;28;20246;-79
2021/03/11 11:29:48;;;;;;;11.07;2.65;;;11.10;99.90;;;;;;5025745;28;20195;-79
2021/03/11 11:32:15;;;;;;;7.28;2.08;;;11.20;99.90;;;;;;5028007;28;20227;-79
2021/03/11 11:34:42;;;;;;;6.25;2.58;;;11.20;99.90;;;;;;5026896;28;20694;-79
2021/03/11 11:37:08;;;;;;;11.23;2.90;;;11.10;99.90;;;;;;5024279;28;20317;-79
2021/03/11 11:39:34;;;;;;;7.05;3.17;;;11.20;99.90;;;;;;5026961;28;20242;-80
2021/03/11 11:42:01;;;;;;;6.60;2.30;;;11.20;99.90;;;;;;5030099;28;20243;-78
2021/03/11 11:44:27;;;;;;;10.32;2.03;;;11.20;99.90;;;;;;5029385;28;20192;-79
2021/03/11 11:46:53;;;;;;;5.65;1.95;;;11.30;99.90;;;;;;5021718;28;20234;-78
2021/03/11 11:49:19;;;;;;;11.90;2.70;;;11.20;99.90;;;;;;5022744;28;20195;-78
2021/03/11 11:51:46;;;;;;;7.05;2.45;;;11.20;99.90;;;;;;5025226;28;20265;-78
2021/03/11 11:54:13;;;;;;;6.35;1.85;;;11.20;99.90;;;;;;5030079;28;20274;-78
2021/03/11 11:56:39;;;;;;;7.20;2.03;;;11.30;99.90;;;;;;5021713;28;20219;-78
2021/03/11 11:59:05;;;;;;;5.35;2.45;;;11.20;99.90;;;;;;5021940;28;20192;-78
2021/03/11 12:01:32;;;;;;;7.38;2.40;;;11.30;99.90;;;;;;5021871;28;20203;-78
2021/03/11 12:03:58;;;;;;;11.73;2.45;;;11.30;99.90;;;;;;5022837;28;20292;-78
2021/03/11 12:06:24;;;;;;;9.45;2.20;;;11.30;99.90;;;;;;5026313;28;20196;-78
2021/03/11 12:08:52;;;;;;;5.90;2.50;;;11.30;99.90;;;;;;5026327;28;20191;-77
2021/03/11 12:11:18;;;;;;;11.48;2.25;;;11.40;99.90;;;;;;5025389;28;20220;-80
2021/03/11 12:13:44;;;;;;;9.95;2.03;;;11.40;99.90;;;;;;5025647;28;20192;-78
2021/03/11 12:16:10;;;;;;;9.30;2.20;;;11.40;99.90;;;;;;5024823;28;20203;-78
2021/03/11 12:18:37;;;;;;;10.10;2.30;;;11.30;99.90;;;;;;5024341;28;20235;-79
2021/03/11 12:21:03;;;;;;;8.55;2.25;;;11.40;99.90;;;;;;5024270;28;20215;-80
2021/03/11 12:23:30;;;;;;;5.70;2.33;;;11.40;99.90;;;;;;5025590;28;20223;-79
2021/03/11 12:25:59;;;;;;;9.23;2.50;;;11.40;99.90;;;;;;5026122;28;20360;-78
2021/03/11 12:28:25;;;;;;;5.75;2.47;;;11.40;99.90;;;;;;5029877;28;20314;-78
2021/03/11 12:30:52;;;;;;;7.85;2.45;;;11.50;99.90;;;;;;5027652;28;20686;-79
2021/03/11 12:33:18;;;;;;;15.45;2.38;;;11.40;99.90;;;;;;5027129;28;20226;-78
2021/03/11 12:35:45;;;;;;;6.70;1.88;;;11.50;99.90;;;;;;5025034;28;20222;-78
2021/03/11 12:38:12;;;;;;;5.32;1.90;;;11.50;99.90;;;;;;5028912;28;20231;-78
2021/03/11 12:40:38;;;;;;;6.80;2.20;;;11.50;99.90;;;;;;5013124;28;20220;-78
2021/03/11 12:43:06;;;;;;;5.65;2.13;;;11.60;99.90;;;;;;5022697;28;20200;-77
2021/03/11 12:45:32;;;;;;;5.70;2.30;;;11.60;99.90;;;;;;5027642;28;20215;-77
2021/03/11 12:47:58;;;;;;;13.00;3.13;;;11.70;99.90;;;;;;5032048;28;20659;-77
2021/03/11 12:50:24;;;;;;;6.18;2.10;;;11.60;99.90;;;;;;5024956;28;20629;-77
2021/03/11 12:52:51;;;;;;;5.35;2.03;;;11.60;99.90;;;;;;5026474;28;20220;-77
2021/03/11 12:55:18;;;;;;;7.78;1.85;;;11.70;99.90;;;;;;5024169;28;20266;-77
2021/03/11 12:57:45;;;;;;;9.70;2.35;;;11.70;99.90;;;;;;5023410;28;20747;-78